Аэропорт: Усть-Каменогорск. Усть-Каменогорск

ICAO: UASK

METAR:
2021-07-28 13:00:00
UASK 281300Z 31006MPS 9999 FEW033 22/09 Q1008 NOSIG RMK QFE730/0974
METAR:
Информация по данной станции не доступна